Search for airport 
image banner adimage banner adimage banner ad
image banner ad

CL26 - Omninet West Valley Lp

Located in Chatsworth, United States

ICAO - CL26, IATA -

Data provided by Airmate  

General information

Coordinates: N34°14'19" W118°33'57"
Elevation is 1018 feet MSL.
Magnetic variation is 14° East
View others Airports in California

Operational data

Special qualification required
Current time UTC:
Current local time:
Weather at : KVNY - Van Nuys ( 8 km )
METAR: KVNY 210251Z 13003KT 10SM CLR 26/11 A2993 RMK AO2 SLP126 T02560111 53019
TAF: KVNY 202334Z 2100/2124 12008KT P6SM SKC FM210400 VRB03KT P6SM SKC FM212100 12010KT P6SM SKC
View NOTAMs / SUP AIP / TFR affecting this airport [VIEW]
Communications frequencies: [VIEW]

Runways:

Airport contact information

Address: Chatsworth United States

Satellite view of CL26